createdAt,value
2018-06-14T00:01:41.808Z,99.90
2018-06-14T00:04:12.992Z,99.90
2018-06-14T00:06:44.033Z,99.90
2018-06-14T00:09:15.704Z,99.90
2018-06-14T00:11:46.940Z,99.90
2018-06-14T00:14:23.368Z,99.90
2018-06-14T00:19:25.505Z,99.90
2018-06-14T00:21:56.680Z,99.90
2018-06-14T00:24:28.084Z,99.90
2018-06-14T00:26:59.448Z,99.90
2018-06-14T00:29:30.800Z,99.90
2018-06-14T00:32:02.090Z,99.90
2018-06-14T00:34:33.384Z,99.90
2018-06-14T00:37:04.571Z,99.90
2018-06-14T00:39:35.943Z,99.90
2018-06-14T00:42:07.389Z,99.90
2018-06-14T00:44:38.724Z,99.90
2018-06-14T00:47:09.921Z,99.90
2018-06-14T00:49:41.137Z,99.90
2018-06-14T00:52:12.554Z,99.90
2018-06-14T00:54:43.993Z,99.90
2018-06-14T00:57:27.678Z,99.90
2018-06-14T00:59:59.428Z,99.90
2018-06-14T01:02:30.888Z,99.90
2018-06-14T01:05:02.047Z,99.90
2018-06-14T01:07:33.464Z,99.90
2018-06-14T01:10:04.870Z,99.90
2018-06-14T01:12:36.216Z,99.90
2018-06-14T01:15:07.359Z,99.90
2018-06-14T01:17:38.786Z,99.90
2018-06-14T01:20:09.971Z,99.90
2018-06-14T01:22:41.628Z,99.90
2018-06-14T01:25:12.778Z,99.90
2018-06-14T01:27:44.427Z,99.90
2018-06-14T01:30:15.736Z,99.90
2018-06-14T01:32:47.111Z,99.90
2018-06-14T01:35:18.276Z,99.90
2018-06-14T01:38:55.479Z,99.90
2018-06-14T01:41:27.065Z,99.90
2018-06-14T01:48:59.343Z,99.90
2018-06-14T01:51:30.472Z,99.90
2018-06-14T01:54:01.977Z,99.90
2018-06-14T01:56:33.276Z,99.90
2018-06-14T01:59:04.306Z,99.90
2018-06-14T02:01:35.710Z,99.90
2018-06-14T02:04:06.957Z,99.90
2018-06-14T02:06:38.250Z,99.90
2018-06-14T02:09:10.643Z,99.90
2018-06-14T02:11:42.042Z,99.90
2018-06-14T02:14:13.217Z,99.90
2018-06-14T02:19:14.804Z,99.90
2018-06-14T02:21:46.451Z,99.90
2018-06-14T02:24:17.571Z,99.90
2018-06-14T02:26:49.558Z,99.90
2018-06-14T02:29:20.784Z,99.90
2018-06-14T02:31:52.432Z,99.90
2018-06-14T02:34:23.648Z,99.90
2018-06-14T02:36:55.280Z,99.90
2018-06-14T02:39:26.503Z,99.90
2018-06-14T02:41:57.984Z,99.90
2018-06-14T02:44:29.409Z,99.90
2018-06-14T02:47:00.465Z,99.90
2018-06-14T02:49:32.446Z,99.90
2018-06-14T02:52:04.403Z,99.90
2018-06-14T02:54:35.909Z,99.90
2018-06-14T02:59:37.607Z,99.90
2018-06-14T03:02:09.025Z,99.90
2018-06-14T03:04:40.252Z,99.90
2018-06-14T03:07:11.510Z,99.90
2018-06-14T03:09:42.564Z,99.90
2018-06-14T03:12:13.544Z,99.90
2018-06-14T03:14:44.849Z,99.90
2018-06-14T03:17:16.155Z,99.90
2018-06-14T03:19:47.599Z,99.90
2018-06-14T03:22:19.324Z,99.90
2018-06-14T03:24:50.692Z,99.90
2018-06-14T03:27:21.703Z,99.90
2018-06-14T03:29:53.095Z,99.90
2018-06-14T03:32:24.388Z,99.90
2018-06-14T03:37:26.115Z,99.90
2018-06-14T03:39:58.104Z,99.90
2018-06-14T03:42:29.436Z,99.90
2018-06-14T03:45:01.283Z,99.90
2018-06-14T03:47:32.601Z,99.90
2018-06-14T03:50:03.895Z,99.90
2018-06-14T03:52:35.767Z,99.90
2018-06-14T03:55:06.969Z,99.90
2018-06-14T03:57:37.940Z,99.90
2018-06-14T04:00:09.395Z,99.90
2018-06-14T04:02:40.537Z,99.90
2018-06-14T04:05:11.690Z,99.90
2018-06-14T04:07:42.773Z,99.90
2018-06-14T04:10:13.957Z,99.90
2018-06-14T04:12:45.159Z,99.90
2018-06-14T04:15:16.468Z,99.90
2018-06-14T04:17:56.135Z,99.90
2018-06-14T04:20:27.172Z,99.90
2018-06-14T04:22:58.503Z,99.90
2018-06-14T04:25:29.780Z,99.90
2018-06-14T04:28:00.888Z,99.90
2018-06-14T04:30:31.917Z,99.90
2018-06-14T04:33:03.280Z,99.90
2018-06-14T04:35:34.274Z,99.90
2018-06-14T04:38:06.129Z,99.90
2018-06-14T04:40:37.432Z,99.90
2018-06-14T04:43:09.072Z,99.90
2018-06-14T04:45:40.395Z,99.90
2018-06-14T04:48:11.615Z,99.90
2018-06-14T04:50:42.613Z,99.90
2018-06-14T04:53:13.776Z,99.90
2018-06-14T04:55:45.052Z,99.90
2018-06-14T04:58:16.399Z,99.90
2018-06-14T05:00:47.804Z,99.90
2018-06-14T05:03:19.172Z,99.90
2018-06-14T05:05:50.344Z,99.90
2018-06-14T05:08:24.574Z,99.90
2018-06-14T05:10:56.319Z,99.90
2018-06-14T05:13:27.749Z,99.90
2018-06-14T05:16:03.296Z,99.90
2018-06-14T05:18:34.535Z,99.90
2018-06-14T05:21:05.795Z,99.90
2018-06-14T05:23:37.208Z,99.90
2018-06-14T05:26:08.568Z,99.90
2018-06-14T05:28:40.193Z,99.90
2018-06-14T05:31:11.504Z,99.90
2018-06-14T05:33:43.340Z,99.90
2018-06-14T05:36:15.767Z,99.90
2018-06-14T05:38:47.433Z,99.90
2018-06-14T05:41:18.615Z,99.90
2018-06-14T05:43:49.820Z,99.90
2018-06-14T05:46:20.824Z,99.90
2018-06-14T05:48:52.249Z,99.90
2018-06-14T05:51:23.394Z,99.90
2018-06-14T05:53:55.066Z,99.90
2018-06-14T05:56:26.196Z,99.90
2018-06-14T05:58:57.567Z,99.90
2018-06-14T06:01:28.935Z,99.90
2018-06-14T06:03:59.939Z,99.90
2018-06-14T06:06:31.154Z,99.90
2018-06-14T06:09:02.538Z,99.90
2018-06-14T06:11:33.688Z,99.90
2018-06-14T06:14:05.030Z,99.90
2018-06-14T06:16:36.288Z,99.90
2018-06-14T06:19:07.491Z,99.90
2018-06-14T06:21:38.680Z,99.90
2018-06-14T06:24:10.063Z,99.90
2018-06-14T06:26:41.268Z,99.90
2018-06-14T06:29:12.934Z,99.90
2018-06-14T06:31:44.029Z,99.90
2018-06-14T06:34:15.213Z,99.90
2018-06-14T06:36:46.250Z,99.90
2018-06-14T06:39:17.721Z,99.90
2018-06-14T06:44:19.400Z,99.90
2018-06-14T06:46:50.589Z,99.90
2018-06-14T06:49:21.572Z,99.90
2018-06-14T06:51:52.605Z,99.90
2018-06-14T06:54:24.260Z,99.90
2018-06-14T06:56:55.557Z,99.90
2018-06-14T06:59:26.756Z,99.90
2018-06-14T07:01:58.208Z,99.90
2018-06-14T07:04:29.322Z,99.90
2018-06-14T07:07:00.504Z,99.90
2018-06-14T07:09:31.556Z,99.90
2018-06-14T07:12:02.998Z,99.90
2018-06-14T07:14:34.283Z,99.90
2018-06-14T07:17:05.487Z,99.90
2018-06-14T07:19:37.161Z,99.90
2018-06-14T07:22:08.261Z,99.90
2018-06-14T07:24:39.640Z,99.90
2018-06-14T07:27:11.043Z,99.90
2018-06-14T07:29:42.253Z,99.90
2018-06-14T07:32:13.903Z,99.90
2018-06-14T07:34:45.979Z,99.90
2018-06-14T07:37:17.164Z,99.90
2018-06-14T07:39:48.406Z,99.90
2018-06-14T07:42:19.799Z,99.90
2018-06-14T07:44:51.148Z,99.90
2018-06-14T07:47:23.007Z,99.90
2018-06-14T07:49:54.303Z,99.90
2018-06-14T07:52:25.500Z,99.90
2018-06-14T07:54:56.751Z,99.90
2018-06-14T07:57:28.107Z,99.90
2018-06-14T07:59:59.535Z,99.90
2018-06-14T08:02:30.843Z,99.90
2018-06-14T08:05:02.047Z,99.90
2018-06-14T08:07:33.053Z,99.90
2018-06-14T08:10:04.361Z,99.90
2018-06-14T08:12:35.603Z,99.90
2018-06-14T08:15:06.824Z,99.90
2018-06-14T08:17:38.495Z,99.90
2018-06-14T08:20:10.245Z,99.90
2018-06-14T08:22:41.388Z,99.90
2018-06-14T08:25:12.796Z,99.90
2018-06-14T08:27:44.154Z,99.90
2018-06-14T08:30:15.347Z,99.90
2018-06-14T08:32:46.726Z,99.90
2018-06-14T08:35:17.927Z,99.90
2018-06-14T08:37:49.297Z,99.90
2018-06-14T08:40:20.696Z,99.90
2018-06-14T08:42:51.671Z,99.90
2018-06-14T08:45:23.139Z,99.90
2018-06-14T08:47:54.743Z,99.90
2018-06-14T08:50:26.105Z,99.90
2018-06-14T08:52:58.091Z,99.90
2018-06-14T08:55:29.441Z,99.90
2018-06-14T08:58:00.504Z,99.90
2018-06-14T09:00:31.788Z,99.90
2018-06-14T09:03:03.071Z,99.90
2018-06-14T09:05:34.375Z,99.90
2018-06-14T09:08:05.577Z,99.90
2018-06-14T09:10:36.745Z,99.90
2018-06-14T09:13:08.747Z,99.90
2018-06-14T09:15:39.928Z,99.90
2018-06-14T09:18:11.121Z,99.90
2018-06-14T09:20:42.592Z,99.90
2018-06-14T09:23:13.895Z,99.90
2018-06-14T09:25:45.093Z,99.90
2018-06-14T09:28:16.107Z,99.90
2018-06-14T09:30:47.531Z,99.90
2018-06-14T09:33:18.859Z,99.90
2018-06-14T09:35:50.231Z,99.90
2018-06-14T09:38:21.733Z,99.90
2018-06-14T09:40:53.013Z,99.90
2018-06-14T09:43:24.359Z,99.90
2018-06-14T09:45:55.608Z,99.90
2018-06-14T09:48:26.972Z,99.90
2018-06-14T09:50:58.203Z,99.90
2018-06-14T09:53:29.576Z,99.90
2018-06-14T09:56:00.861Z,99.90
2018-06-14T09:58:32.168Z,99.90
2018-06-14T10:01:03.308Z,99.90
2018-06-14T10:03:34.607Z,99.90
2018-06-14T10:06:06.044Z,99.90
2018-06-14T10:08:37.344Z,99.90
2018-06-14T10:11:08.979Z,99.90
2018-06-14T10:13:40.119Z,99.90
2018-06-14T10:16:11.292Z,99.90
2018-06-14T10:18:42.315Z,99.90
2018-06-14T10:21:13.946Z,99.90
2018-06-14T10:23:45.046Z,99.90
2018-06-14T10:26:16.463Z,99.90
2018-06-14T10:28:48.208Z,99.90
2018-06-14T10:31:19.597Z,99.90
2018-06-14T10:33:50.865Z,99.90
2018-06-14T10:36:22.010Z,99.90
2018-06-14T10:38:53.352Z,99.90
2018-06-14T10:41:24.847Z,99.90
2018-06-14T10:43:56.200Z,99.90
2018-06-14T10:46:28.009Z,99.90
2018-06-14T10:49:00.058Z,99.90
2018-06-14T10:51:31.309Z,99.90
2018-06-14T10:54:02.519Z,99.90
2018-06-14T10:56:33.729Z,99.90
2018-06-14T10:59:05.114Z,99.90
2018-06-14T11:01:36.497Z,99.90
2018-06-14T11:04:07.909Z,99.90
2018-06-14T11:06:39.067Z,99.90
2018-06-14T11:09:12.984Z,99.90
2018-06-14T11:11:44.459Z,99.90
2018-06-14T11:14:15.616Z,99.90
2018-06-14T11:16:47.628Z,99.90
2018-06-14T11:19:18.921Z,99.90
2018-06-14T11:21:50.131Z,99.90
2018-06-14T11:24:21.323Z,99.90
2018-06-14T11:26:52.501Z,99.90
2018-06-14T11:29:23.518Z,99.90
2018-06-14T11:31:54.892Z,99.90
2018-06-14T11:34:26.406Z,99.90
2018-06-14T11:41:59.584Z,99.60
2018-06-14T11:49:32.056Z,98.60
2018-06-14T11:52:03.457Z,99.90
2018-06-14T11:54:34.837Z,99.90
2018-06-14T11:57:06.054Z,99.90
2018-06-14T11:59:37.452Z,99.90
2018-06-14T12:02:09.065Z,99.90
2018-06-14T12:04:40.956Z,99.90
2018-06-14T12:07:12.147Z,98.90
2018-06-14T12:09:43.374Z,99.90
2018-06-14T12:12:15.372Z,97.90
2018-06-14T12:14:47.187Z,97.30
2018-06-14T12:17:18.517Z,99.40
2018-06-14T12:19:49.688Z,99.90
2018-06-14T12:22:20.918Z,99.70
2018-06-14T12:24:52.069Z,99.90
2018-06-14T12:27:23.098Z,99.90
2018-06-14T12:29:54.443Z,99.90
2018-06-14T12:32:25.670Z,99.90
2018-06-14T12:34:57.414Z,99.20
2018-06-14T12:37:28.598Z,98.00
2018-06-14T12:39:59.642Z,98.20
2018-06-14T12:42:30.847Z,97.90
2018-06-14T12:45:02.199Z,97.90
2018-06-14T12:47:33.176Z,96.30
2018-06-14T12:50:04.276Z,96.50
2018-06-14T12:52:36.292Z,96.80
2018-06-14T12:55:07.679Z,95.30
2018-06-14T12:57:38.945Z,96.70
2018-06-14T13:00:10.644Z,95.70
2018-06-14T13:05:12.819Z,95.40
2018-06-14T13:10:14.516Z,99.90
2018-06-14T13:12:46.432Z,99.90
2018-06-14T13:15:17.510Z,98.80
2018-06-14T13:17:48.857Z,97.80
2018-06-14T13:20:20.327Z,98.20
2018-06-14T13:22:51.776Z,98.20
2018-06-14T13:25:23.069Z,95.00
2018-06-14T13:27:54.420Z,95.10
2018-06-14T13:30:25.407Z,92.90
2018-06-14T13:32:56.616Z,94.20
2018-06-14T13:35:27.964Z,95.90
2018-06-14T13:37:59.648Z,96.50
2018-06-14T13:40:31.275Z,96.00
2018-06-14T13:43:02.565Z,95.70
2018-06-14T13:45:33.919Z,94.40
2018-06-14T13:48:05.159Z,94.40
2018-06-14T13:50:36.405Z,93.60
2018-06-14T13:53:07.747Z,93.90
2018-06-14T13:55:39.595Z,94.00
2018-06-14T13:58:10.870Z,89.30
2018-06-14T14:00:42.280Z,90.70
2018-06-14T14:03:13.718Z,92.30
2018-06-14T14:05:44.828Z,91.40
2018-06-14T14:08:16.060Z,91.30
2018-06-14T14:10:47.363Z,90.60
2018-06-14T14:13:18.404Z,90.70
2018-06-14T14:15:49.866Z,91.10
2018-06-14T14:18:21.131Z,91.30
2018-06-14T14:20:52.751Z,91.70
2018-06-14T14:23:23.760Z,92.30
2018-06-14T14:25:54.771Z,91.60
2018-06-14T14:28:25.951Z,92.50
2018-06-14T14:30:56.960Z,92.90
2018-06-14T14:33:28.168Z,92.60
2018-06-14T14:35:59.568Z,90.60
2018-06-14T14:38:30.993Z,86.80
2018-06-14T14:41:02.317Z,85.60
2018-06-14T14:43:33.312Z,85.70
2018-06-14T14:46:04.696Z,89.30
2018-06-14T14:48:35.903Z,90.10
2018-06-14T14:51:07.562Z,91.50
2018-06-14T14:53:38.879Z,91.50
2018-06-14T14:56:10.525Z,91.60
2018-06-14T14:58:41.887Z,93.20
2018-06-14T15:01:13.231Z,93.30
2018-06-14T15:03:45.327Z,93.60
2018-06-14T15:06:17.370Z,92.40
2018-06-14T15:08:48.836Z,93.80
2018-06-14T15:11:20.149Z,94.90
2018-06-14T15:19:46.275Z,96.60
2018-06-14T15:22:17.348Z,94.90
2018-06-14T15:24:48.523Z,94.40
2018-06-14T15:27:19.936Z,94.10
2018-06-14T15:29:51.264Z,96.20
2018-06-14T15:32:22.299Z,94.00
2018-06-14T15:34:53.702Z,95.50
2018-06-14T15:37:24.701Z,94.50
2018-06-14T15:39:56.336Z,95.30
2018-06-14T15:42:27.425Z,93.80
2018-06-14T15:44:58.424Z,94.60
2018-06-14T15:47:30.399Z,93.10
2018-06-14T15:50:01.441Z,94.20
2018-06-14T15:52:33.658Z,93.30
2018-06-14T15:55:20.672Z,93.90
2018-06-14T15:57:51.859Z,94.20
2018-06-14T16:00:22.872Z,92.20
2018-06-14T16:02:53.860Z,92.70
2018-06-14T16:05:25.085Z,93.10
2018-06-14T16:07:56.246Z,94.20
2018-06-14T16:10:27.445Z,93.20
2018-06-14T16:12:58.903Z,93.90
2018-06-14T16:15:30.223Z,95.00
2018-06-14T16:18:01.232Z,95.00
2018-06-14T16:20:32.415Z,95.80
2018-06-14T16:23:03.680Z,95.50
2018-06-14T16:25:34.804Z,95.10
2018-06-14T16:28:06.479Z,95.30
2018-06-14T16:30:37.677Z,93.60
2018-06-14T16:33:09.671Z,95.80
2018-06-14T16:35:40.975Z,94.90
2018-06-14T16:38:12.319Z,96.40
2018-06-14T16:40:44.564Z,95.60
2018-06-14T16:43:16.449Z,96.20
2018-06-14T16:45:47.723Z,96.60
2018-06-14T16:48:19.069Z,97.40
2018-06-14T16:50:50.322Z,97.30
2018-06-14T16:53:21.457Z,96.40
2018-06-14T16:55:52.501Z,96.70
2018-06-14T16:58:24.003Z,98.30
2018-06-14T17:00:55.287Z,97.70
2018-06-14T17:03:26.694Z,96.70
2018-06-14T17:05:57.838Z,96.70
2018-06-14T17:08:29.200Z,97.00
2018-06-14T17:11:00.850Z,98.10
2018-06-14T17:13:32.174Z,97.10
2018-06-14T17:16:03.392Z,97.70
2018-06-14T17:18:34.522Z,97.10
2018-06-14T17:21:05.755Z,96.70
2018-06-14T17:23:38.165Z,96.80
2018-06-14T17:26:09.314Z,96.30
2018-06-14T17:28:40.687Z,96.50
2018-06-14T17:31:12.499Z,97.10
2018-06-14T17:33:43.675Z,97.50
2018-06-14T17:36:15.228Z,97.30
2018-06-14T17:38:46.249Z,98.30
2018-06-14T17:41:17.735Z,97.60
2018-06-14T17:43:49.042Z,98.00
2018-06-14T17:46:20.265Z,97.70
2018-06-14T17:48:51.400Z,97.40
2018-06-14T17:51:22.601Z,99.30
2018-06-14T17:53:53.976Z,98.60
2018-06-14T17:56:25.380Z,98.30
2018-06-14T17:58:56.549Z,98.60
2018-06-14T18:01:27.785Z,99.20
2018-06-14T18:03:59.185Z,99.40
2018-06-14T18:06:30.545Z,99.80
2018-06-14T18:09:01.927Z,99.90
2018-06-14T18:11:33.085Z,99.90
2018-06-14T18:14:04.594Z,99.90
2018-06-14T18:19:07.278Z,99.90
2018-06-14T18:21:38.697Z,99.90
2018-06-14T18:24:10.184Z,99.90
2018-06-14T18:26:41.384Z,99.90
2018-06-14T18:29:12.619Z,99.90
2018-06-14T18:31:43.792Z,99.90
2018-06-14T18:34:15.207Z,99.90
2018-06-14T18:36:46.377Z,99.90
2018-06-14T18:39:17.621Z,99.90
2018-06-14T18:41:48.948Z,99.90
2018-06-14T18:44:20.644Z,99.90
2018-06-14T18:46:51.757Z,99.90
2018-06-14T18:49:22.945Z,99.90
2018-06-14T18:51:54.209Z,99.90
2018-06-14T18:54:25.493Z,99.90
2018-06-14T18:56:57.781Z,99.90
2018-06-14T18:59:29.060Z,99.90
2018-06-14T19:02:00.268Z,99.90
2018-06-14T19:04:31.505Z,99.90
2018-06-14T19:07:02.863Z,99.90
2018-06-14T19:09:34.513Z,99.90
2018-06-14T19:12:05.704Z,99.90
2018-06-14T19:14:37.285Z,99.90
2018-06-14T19:17:08.592Z,99.90
2018-06-14T19:19:40.241Z,99.90
2018-06-14T19:22:12.025Z,99.90
2018-06-14T19:24:43.208Z,99.90
2018-06-14T19:27:14.364Z,99.90
2018-06-14T19:29:45.540Z,99.90
2018-06-14T19:32:16.908Z,99.90
2018-06-14T19:34:47.913Z,99.90
2018-06-14T19:37:19.267Z,99.90
2018-06-14T19:39:50.559Z,99.90
2018-06-14T19:42:21.867Z,99.90
2018-06-14T19:44:52.888Z,99.90
2018-06-14T19:47:24.264Z,99.90
2018-06-14T19:49:55.656Z,99.90
2018-06-14T19:52:26.856Z,99.90
2018-06-14T19:54:58.206Z,99.90
2018-06-14T19:57:29.423Z,99.90
2018-06-14T20:00:00.806Z,99.90
2018-06-14T20:02:32.035Z,99.90
2018-06-14T20:05:03.407Z,99.90
2018-06-14T20:07:34.588Z,99.90
2018-06-14T20:10:06.036Z,99.90
2018-06-14T20:12:37.799Z,99.90
2018-06-14T20:15:09.627Z,99.90
2018-06-14T20:17:40.931Z,99.90
2018-06-14T20:20:13.251Z,99.90
2018-06-14T20:22:44.272Z,99.90
2018-06-14T20:25:15.300Z,99.90
2018-06-14T20:27:46.715Z,99.90
2018-06-14T20:30:18.319Z,99.90
2018-06-14T20:32:49.636Z,99.90
2018-06-14T20:35:20.867Z,99.90
2018-06-14T20:37:52.255Z,99.90
2018-06-14T20:40:23.660Z,99.90
2018-06-14T20:42:54.792Z,99.90
2018-06-14T20:45:26.480Z,99.90
2018-06-14T20:47:57.927Z,99.90
2018-06-14T20:50:29.926Z,99.90
2018-06-14T20:53:01.367Z,99.90
2018-06-14T20:55:34.241Z,99.90
2018-06-14T20:58:05.357Z,99.90
2018-06-14T21:00:37.695Z,99.90
2018-06-14T21:03:08.836Z,99.90
2018-06-14T21:05:40.068Z,99.90
2018-06-14T21:08:11.427Z,99.90
2018-06-14T21:10:42.453Z,99.90
2018-06-14T21:13:13.804Z,99.90
2018-06-14T21:15:45.217Z,99.90
2018-06-14T21:18:16.415Z,99.90
2018-06-14T21:20:47.898Z,99.90
2018-06-14T21:23:19.015Z,99.90
2018-06-14T21:25:50.416Z,99.90
2018-06-14T21:28:21.766Z,99.90
2018-06-14T21:30:53.161Z,99.90
2018-06-14T21:33:24.567Z,99.90
2018-06-14T21:35:55.955Z,99.90
2018-06-14T21:38:27.960Z,99.90
2018-06-14T21:40:59.754Z,99.90
2018-06-14T21:43:31.044Z,99.90
2018-06-14T21:46:02.886Z,99.90
2018-06-14T21:48:34.302Z,99.90
2018-06-14T21:51:05.731Z,99.90
2018-06-14T21:53:36.794Z,99.90
2018-06-14T21:56:07.831Z,99.90
2018-06-14T21:58:38.984Z,99.90
2018-06-14T22:01:12.177Z,99.90
2018-06-14T22:03:48.288Z,99.90
2018-06-14T22:06:19.482Z,99.90
2018-06-14T22:08:50.656Z,99.90
2018-06-14T22:11:22.027Z,99.90
2018-06-14T22:13:53.301Z,99.90
2018-06-14T22:16:24.769Z,99.90
2018-06-14T22:18:56.021Z,99.90
2018-06-14T22:21:27.670Z,99.90
2018-06-14T22:23:58.768Z,99.90
2018-06-14T22:26:30.010Z,99.90
2018-06-14T22:29:01.820Z,99.90
2018-06-14T22:31:33.416Z,99.90
2018-06-14T22:34:20.294Z,99.90
2018-06-14T22:36:51.800Z,99.90
2018-06-14T22:39:22.844Z,99.90
2018-06-14T22:41:54.284Z,99.90
2018-06-14T22:44:25.640Z,99.90
2018-06-14T22:46:57.000Z,99.90
2018-06-14T22:49:28.494Z,99.90
2018-06-14T22:53:08.997Z,99.90
2018-06-14T22:55:40.305Z,99.90
2018-06-14T22:58:11.361Z,99.90
2018-06-14T23:01:34.232Z,99.90
2018-06-14T23:04:05.925Z,99.90
2018-06-14T23:06:37.512Z,99.90
2018-06-14T23:10:24.958Z,99.90
2018-06-14T23:12:56.288Z,99.90
2018-06-14T23:15:27.715Z,99.90
2018-06-14T23:17:59.265Z,99.90
2018-06-14T23:20:31.692Z,99.90
2018-06-14T23:23:03.585Z,99.90
2018-06-14T23:25:35.144Z,99.90
2018-06-14T23:28:06.504Z,99.90
2018-06-14T23:30:37.636Z,99.90
2018-06-14T23:33:08.995Z,99.90
2018-06-14T23:35:40.331Z,99.90
2018-06-14T23:38:11.373Z,99.90
2018-06-14T23:40:42.697Z,99.90
2018-06-14T23:43:13.724Z,99.90
2018-06-14T23:45:44.706Z,99.90
2018-06-14T23:48:16.117Z,99.90
2018-06-14T23:50:47.883Z,99.90
2018-06-14T23:53:19.645Z,99.90
2018-06-14T23:55:50.884Z,99.90
2018-06-14T23:58:22.277Z,99.90
